Time;durP1;ratioP1;P1;durP2;ratioP2;P2;SDS_P1;SDS_P2;PMS_P1;PMS_P2;Temp;Humidity;BMP_temperature;BMP_pressure;BME280_temperature;BME280_humidity;BME280_pressure;Samples;Min_cycle;Max_cycle;Signal;HPM_P1;HPM_P2
2022/07/03 00:01:41;;;;;;;;;1.00;0.00;;;;;21.69;42.78;101657.72;4983268;28;45286;-54
2022/07/03 00:04:06;;;;;;;;;0.00;0.00;;;;;21.66;42.57;101657.16;4983322;28;45245;-51
2022/07/03 00:06:33;;;;;;;;;1.50;0.25;;;;;21.64;42.87;101659.97;4982785;28;45517;-52
2022/07/03 00:09:00;;;;;;;;;0.25;0.25;;;;;21.62;42.66;101653.06;4983013;28;45310;-53
2022/07/03 00:11:26;;;;;;;;;0.00;0.00;;;;;21.61;43.05;101646.84;4982859;28;45295;-52
2022/07/03 00:13:52;;;;;;;;;0.50;0.50;;;;;21.61;42.93;101652.19;4982839;28;45397;-50
2022/07/03 00:16:17;;;;;;;;;0.00;0.00;;;;;21.61;42.82;101648.69;4982629;28;45214;-52
2022/07/03 00:18:43;;;;;;;;;1.50;1.00;;;;;21.59;42.98;101651.50;4990281;28;45556;-52
2022/07/03 00:21:11;;;;;;;;;0.75;0.00;;;;;21.57;42.93;101650.81;5002476;28;45324;-52
2022/07/03 00:24:03;;;;;;;;;0.00;0.00;;;;;21.55;43.21;101646.56;5002268;28;45330;-52
2022/07/03 00:26:34;;;;;;;;;0.75;0.75;;;;;21.53;43.32;101652.06;4985041;28;45326;-50
2022/07/03 00:29:01;;;;;;;;;0.00;0.00;;;;;21.54;42.99;101645.69;4982524;28;45238;-50
2022/07/03 00:31:30;;;;;;;;;0.00;0.00;;;;;21.54;43.20;101643.03;4982452;28;45240;-51
2022/07/03 00:33:58;;;;;;;;;0.00;0.00;;;;;21.53;43.31;101646.69;4982883;28;45322;-50
2022/07/03 00:36:29;;;;;;;;;0.75;0.75;;;;;21.52;43.19;101649.53;4964979;28;45440;-50
2022/07/03 00:38:54;;;;;;;;;1.00;1.00;;;;;21.47;43.06;101649.94;4982278;28;45342;-52
2022/07/03 00:41:28;;;;;;;;;0.00;0.00;;;;;21.43;43.16;101645.84;4982589;28;45457;-51
2022/07/03 00:43:54;;;;;;;;;0.00;0.00;;;;;21.40;43.38;101646.94;4982331;28;45346;-50
2022/07/03 00:46:23;;;;;;;;;0.00;0.00;;;;;21.36;43.38;101642.88;4981980;28;46433;-50
2022/07/03 00:48:50;;;;;;;;;0.00;0.00;;;;;21.30;43.30;101645.25;4982426;28;45244;-53
2022/07/03 00:51:20;;;;;;;;;0.25;0.25;;;;;21.26;43.20;101658.06;4982605;28;45296;-53
2022/07/03 00:53:50;;;;;;;;;0.75;0.75;;;;;21.25;43.41;101650.13;4982492;28;45346;-54
2022/07/03 00:56:16;;;;;;;;;0.00;0.00;;;;;21.24;43.24;101653.81;4982172;28;45311;-51
2022/07/03 00:58:42;;;;;;;;;0.00;0.00;;;;;21.19;43.33;101654.25;4981865;28;45260;-51
2022/07/03 01:01:10;;;;;;;;;0.00;0.00;;;;;21.16;43.08;101658.00;4982518;28;45444;-55
2022/07/03 01:03:44;;;;;;;;;0.00;0.00;;;;;21.15;43.35;101658.16;4981932;28;45459;-52
2022/07/03 01:06:14;;;;;;;;;0.25;0.25;;;;;21.17;43.24;101654.38;4982253;28;46418;-54
2022/07/03 01:08:48;;;;;;;;;0.50;0.00;;;;;21.15;43.39;101655.47;4981884;28;45227;-54
2022/07/03 01:11:47;;;;;;;;;0.00;0.00;;;;;21.11;43.00;101654.06;4982306;28;45493;-56
2022/07/03 01:14:24;;;;;;;;;1.00;0.00;;;;;21.10;43.15;101653.22;4982070;28;45382;-54
2022/07/03 01:17:03;;;;;;;;;0.00;0.00;;;;;21.08;43.29;101652.50;4981727;28;45504;-53
2022/07/03 01:19:44;;;;;;;;;0.50;0.00;;;;;21.07;42.88;101653.47;4995377;28;45305;-52
2022/07/03 01:22:41;;;;;;;;;0.50;0.00;;;;;21.03;43.37;101652.06;5001899;28;45313;-51
2022/07/03 01:25:26;;;;;;;;;0.25;0.00;;;;;21.03;43.21;101656.59;4996790;28;45375;-51
2022/07/03 01:28:15;;;;;;;;;0.50;0.50;;;;;21.02;42.99;101649.53;4981429;28;46189;-54
2022/07/03 01:30:52;;;;;;;;;0.00;0.00;;;;;20.98;43.45;101656.13;4981758;28;45323;-54
2022/07/03 01:33:23;;;;;;;;;0.50;0.50;;;;;20.96;43.44;101653.59;4981708;28;45346;-51
2022/07/03 01:35:52;;;;;;;;;0.00;0.00;;;;;20.95;43.30;101654.59;4981756;28;45554;-55
2022/07/03 01:38:21;;;;;;;;;0.50;0.50;;;;;20.95;43.54;101656.44;4981447;28;45282;-55
2022/07/03 01:40:49;;;;;;;;;0.00;0.00;;;;;20.93;43.24;101656.53;4981574;28;45331;-52
2022/07/03 01:43:15;;;;;;;;;1.00;0.00;;;;;20.92;43.43;101654.84;4981586;28;45237;-54
2022/07/03 01:45:47;;;;;;;;;0.00;0.00;;;;;20.89;43.31;101657.81;4981728;28;45166;-58
2022/07/03 01:48:14;;;;;;;;;0.00;0.00;;;;;20.87;43.67;101657.94;4981466;28;45298;-54
2022/07/03 01:50:42;;;;;;;;;0.00;0.00;;;;;20.86;43.56;101653.56;4981390;28;45251;-55
2022/07/03 01:53:10;;;;;;;;;0.00;0.00;;;;;20.85;43.42;101659.03;4981803;28;45421;-52
2022/07/03 01:55:39;;;;;;;;;0.75;0.75;;;;;20.83;43.69;101652.97;4981433;28;45524;-53
2022/07/03 01:58:06;;;;;;;;;0.00;0.00;;;;;20.83;43.54;101656.50;4981131;28;45616;-54
2022/07/03 02:00:45;;;;;;;;;1.75;0.75;;;;;20.81;43.85;101655.81;4981394;28;45469;-50
2022/07/03 02:03:10;;;;;;;;;1.00;0.00;;;;;20.79;44.06;101652.41;4981386;28;45315;-53
2022/07/03 02:05:45;;;;;;;;;0.00;0.00;;;;;20.76;43.88;101647.31;4979778;28;45259;-52
2022/07/03 02:08:42;;;;;;;;;3.75;1.00;;;;;20.73;44.28;101652.94;4995073;28;45385;-51
2022/07/03 02:11:19;;;;;;;;;0.00;0.00;;;;;20.70;44.14;101650.56;5001088;28;45258;-50
2022/07/03 02:14:08;;;;;;;;;1.00;1.00;;;;;20.69;43.98;101653.34;5000707;28;45501;-54
2022/07/03 02:17:03;;;;;;;;;0.00;0.00;;;;;20.63;43.97;101642.22;4985350;28;45586;-53
2022/07/03 02:19:39;;;;;;;;;0.00;0.00;;;;;20.64;44.21;101651.09;5000321;28;45309;-51
2022/07/03 02:22:08;;;;;;;;;0.00;0.00;;;;;20.63;44.14;101652.06;5001009;28;45404;-51
2022/07/03 02:24:44;;;;;;;;;0.00;0.00;;;;;20.60;44.40;101647.81;4982680;28;45302;-54
2022/07/03 02:27:15;;;;;;;;;2.00;2.00;;;;;20.61;44.52;101649.50;4981185;28;45300;-52
2022/07/03 02:29:50;;;;;;;;;1.50;1.50;;;;;20.59;44.60;101642.59;4980544;28;45335;-53
2022/07/03 02:32:21;;;;;;;;;0.00;0.00;;;;;20.58;44.66;101648.94;4980825;28;45341;-54
2022/07/03 02:34:55;;;;;;;;;2.00;1.50;;;;;20.56;44.83;101642.88;4981106;28;45252;-50
2022/07/03 02:37:23;;;;;;;;;3.00;1.00;;;;;20.54;45.14;101656.41;4980788;28;45398;-51
2022/07/03 02:39:53;;;;;;;;;0.00;0.00;;;;;20.46;45.67;101656.22;4980591;28;45680;-53
2022/07/03 02:42:40;;;;;;;;;1.00;1.00;;;;;20.39;45.13;101656.84;4980879;28;45243;-50
2022/07/03 02:45:09;;;;;;;;;1.00;1.00;;;;;20.32;45.34;101664.53;4980737;28;45288;-49
2022/07/03 02:47:46;;;;;;;;;0.50;0.50;;;;;20.24;45.57;101667.03;4980675;28;45464;-49
2022/07/03 02:50:17;;;;;;;;;1.00;1.00;;;;;20.17;45.75;101674.72;4981871;28;46066;-53
2022/07/03 02:52:55;;;;;;;;;0.75;0.75;;;;;20.14;46.03;101669.63;4984355;28;45291;-52
2022/07/03 02:55:44;;;;;;;;;2.50;1.00;;;;;20.13;45.97;101667.91;4984119;28;45307;-54
2022/07/03 02:58:29;;;;;;;;;1.00;1.00;;;;;20.10;46.31;101668.19;4983884;28;45294;-55
2022/07/03 03:01:17;;;;;;;;;2.50;1.00;;;;;20.01;46.55;101671.66;4983991;28;45324;-52
2022/07/03 03:03:57;;;;;;;;;2.00;1.00;;;;;20.00;46.90;101677.97;4983813;28;45277;-53
2022/07/03 03:06:26;;;;;;;;;2.50;1.00;;;;;19.94;46.98;101675.81;4984127;28;45259;-51
2022/07/03 03:09:03;;;;;;;;;1.50;1.50;;;;;19.87;46.61;101677.31;4984123;28;45517;-53
2022/07/03 03:11:42;;;;;;;;;1.25;1.25;;;;;19.79;46.78;101686.81;4983777;28;46141;-51
2022/07/03 03:14:12;;;;;;;;;0.50;0.50;;;;;19.73;47.36;101676.63;4983921;28;45437;-53
2022/07/03 03:16:46;;;;;;;;;2.25;2.00;;;;;19.70;47.22;101684.06;4983742;28;45559;-53
2022/07/03 03:19:12;;;;;;;;;2.00;2.00;;;;;19.65;47.22;101681.75;4995330;28;45476;-53
2022/07/03 03:21:56;;;;;;;;;2.00;1.00;;;;;19.64;47.29;101687.22;5003089;28;45525;-54
2022/07/03 03:24:22;;;;;;;;;2.50;2.00;;;;;19.63;47.45;101685.53;5003497;28;45229;-54
2022/07/03 03:26:48;;;;;;;;;1.00;1.00;;;;;19.66;47.36;101686.13;4984806;28;45449;-51
2022/07/03 03:29:13;;;;;;;;;3.00;2.00;;;;;19.68;47.90;101672.66;4983421;28;45468;-53
2022/07/03 03:31:39;;;;;;;;;1.25;1.25;;;;;19.67;47.60;101674.47;4983586;28;46215;-51
2022/07/03 03:34:05;;;;;;;;;1.75;1.75;;;;;19.67;47.74;101665.56;4983615;28;45259;-51
2022/07/03 03:36:32;;;;;;;;;1.75;1.00;;;;;19.67;47.60;101674.47;4983759;28;45341;-51
2022/07/03 03:38:57;;;;;;;;;1.50;1.50;;;;;19.64;48.03;101672.03;4983369;28;45566;-55
2022/07/03 03:41:23;;;;;;;;;2.25;2.25;;;;;19.61;47.83;101669.63;4983340;28;46261;-54
2022/07/03 03:43:49;;;;;;;;;3.50;1.00;;;;;19.59;48.07;101673.38;4983205;28;45191;-54
2022/07/03 03:46:14;;;;;;;;;2.00;1.00;;;;;19.55;47.80;101675.44;4983609;28;45302;-53
2022/07/03 03:48:41;;;;;;;;;1.25;1.00;;;;;19.51;48.12;101673.97;4983372;28;45417;-54
2022/07/03 03:51:09;;;;;;;;;1.00;1.00;;;;;19.52;48.35;101681.06;4983349;28;45239;-53
2022/07/03 03:53:35;;;;;;;;;1.00;1.00;;;;;19.50;48.13;101680.31;4983177;28;45330;-54
2022/07/03 03:56:00;;;;;;;;;2.00;2.00;;;;;19.47;48.36;101676.06;4983294;28;45337;-54
2022/07/03 03:58:27;;;;;;;;;2.00;2.00;;;;;19.42;48.62;101672.91;4983037;28;45413;-53
2022/07/03 04:00:55;;;;;;;;;3.00;2.00;;;;;19.38;48.76;101676.81;4983273;28;46065;-54
2022/07/03 04:03:21;;;;;;;;;3.25;3.00;;;;;19.34;48.11;101682.53;4982847;28;45168;-52
2022/07/03 04:05:46;;;;;;;;;2.00;1.50;;;;;19.30;48.26;101686.44;4983309;28;45291;-54
2022/07/03 04:08:13;;;;;;;;;2.00;2.00;;;;;19.26;48.46;101688.50;4965853;28;45235;-54
2022/07/03 04:10:38;;;;;;;;;4.25;2.00;;;;;19.27;48.68;101681.31;4983133;28;45996;-54
2022/07/03 04:13:04;;;;;;;;;1.00;1.00;;;;;19.31;49.14;101690.81;4982649;28;45464;-50
2022/07/03 04:15:29;;;;;;;;;2.00;2.00;;;;;19.33;48.76;101691.53;4983161;28;45493;-51
2022/07/03 04:17:55;;;;;;;;;1.50;1.50;;;;;19.35;49.01;101698.44;4983936;28;45314;-51
2022/07/03 04:20:20;;;;;;;;;1.00;1.00;;;;;19.36;49.24;101696.63;5002623;28;45357;-53
2022/07/03 04:22:48;;;;;;;;;3.00;1.00;;;;;19.39;49.13;101701.72;5002502;28;45298;-53
2022/07/03 04:25:13;;;;;;;;;1.75;1.25;;;;;19.41;49.08;101699.75;4996785;28;45302;-54
2022/07/03 04:27:39;;;;;;;;;1.25;1.25;;;;;19.39;48.88;101701.72;4982533;28;45417;-54
2022/07/03 04:30:09;;;;;;;;;3.00;2.50;;;;;19.38;49.35;101702.69;4982837;28;46246;-53
2022/07/03 04:32:36;;;;;;;;;3.00;2.00;;;;;19.35;49.25;101702.94;4982483;28;45365;-54
2022/07/03 04:35:01;;;;;;;;;1.50;1.25;;;;;19.32;49.35;101703.19;4982672;28;45322;-51
2022/07/03 04:37:26;;;;;;;;;2.75;1.00;;;;;19.31;49.09;101709.50;4982735;28;45409;-54
2022/07/03 04:39:52;;;;;;;;;1.00;1.00;;;;;19.32;49.12;101709.38;4982661;28;46094;-53
2022/07/03 04:42:17;;;;;;;;;3.75;1.75;;;;;19.35;49.51;101706.44;4982603;28;45262;-53
2022/07/03 04:44:43;;;;;;;;;1.00;1.00;;;;;19.34;49.52;101709.25;4982695;28;45664;-55
2022/07/03 04:47:08;;;;;;;;;2.25;1.00;;;;;19.34;49.48;101704.75;4982459;28;45437;-54
2022/07/03 04:49:34;;;;;;;;;1.50;1.50;;;;;19.39;49.39;101715.06;4982339;28;46264;-54
2022/07/03 04:51:59;;;;;;;;;1.00;1.00;;;;;19.40;49.58;101720.28;4982266;28;45287;-52
2022/07/03 04:54:25;;;;;;;;;1.00;1.00;;;;;19.38;49.30;101719.56;4982688;28;45233;-54
2022/07/03 04:56:50;;;;;;;;;2.00;2.00;;;;;19.38;49.23;101716.06;4982276;28;45470;-54
2022/07/03 04:59:16;;;;;;;;;3.00;1.00;;;;;19.38;49.45;101705.38;4982141;28;45311;-53
2022/07/03 05:01:41;;;;;;;;;1.00;1.00;;;;;19.39;49.58;101704.38;4982136;28;45247;-50
2022/07/03 05:04:06;;;;;;;;;1.00;1.00;;;;;19.39;49.36;101707.91;4982462;28;45215;-54
2022/07/03 05:06:32;;;;;;;;;2.00;1.00;;;;;19.39;49.70;101710.59;4982289;28;45242;-54
2022/07/03 05:08:57;;;;;;;;;1.25;1.25;;;;;19.41;49.77;101711.28;4982314;28;45948;-52
2022/07/03 05:11:23;;;;;;;;;1.50;1.50;;;;;19.41;49.63;101713.13;4982285;28;45759;-54
2022/07/03 05:13:49;;;;;;;;;1.00;0.50;;;;;19.38;49.97;101718.72;4981491;28;45328;-55
2022/07/03 05:16:15;;;;;;;;;1.00;1.00;;;;;19.36;49.87;101716.19;4982094;28;46110;-53
2022/07/03 05:18:40;;;;;;;;;1.75;1.00;;;;;19.40;49.58;101722.13;4989077;28;45938;-54
2022/07/03 05:21:06;;;;;;;;;1.00;1.00;;;;;19.44;50.12;101720.91;5001591;28;45329;-53
2022/07/03 05:23:31;;;;;;;;;3.25;2.00;;;;;19.42;49.77;101715.66;5001900;28;45310;-54
2022/07/03 05:25:58;;;;;;;;;1.00;1.00;;;;;19.43;49.78;101717.41;4989960;28;45359;-55
2022/07/03 05:28:24;;;;;;;;;0.50;0.50;;;;;19.47;49.75;101715.31;4981615;28;45370;-55
2022/07/03 05:30:49;;;;;;;;;0.00;0.00;;;;;19.50;49.76;101718.56;4981549;28;45255;-55
2022/07/03 05:33:15;;;;;;;;;0.00;0.00;;;;;19.57;50.34;101707.41;4982143;28;45251;-55
2022/07/03 05:35:40;;;;;;;;;1.00;1.00;;;;;19.64;50.27;101713.97;4981714;28;45239;-54
2022/07/03 05:38:06;;;;;;;;;2.00;2.00;;;;;19.70;50.27;101718.81;4981839;28;45683;-53
2022/07/03 05:40:31;;;;;;;;;1.00;1.00;;;;;19.76;50.25;101716.47;4986964;28;45269;-52
2022/07/03 05:42:56;;;;;;;;;1.00;1.00;;;;;19.84;49.81;101715.84;5001573;28;45220;-54
2022/07/03 05:45:22;;;;;;;;;1.50;1.50;;;;;19.95;50.17;101717.63;4983718;28;45184;-54
2022/07/03 05:47:47;;;;;;;;;1.00;1.00;;;;;20.03;50.17;101726.69;5001176;28;46250;-53
2022/07/03 05:50:13;;;;;;;;;0.00;0.00;;;;;20.13;49.63;101724.09;5001513;28;45209;-55
2022/07/03 05:52:38;;;;;;;;;1.00;1.00;;;;;20.16;50.06;101726.53;5001672;28;45261;-56
2022/07/03 05:55:04;;;;;;;;;1.00;1.00;;;;;20.22;49.58;101727.81;4970728;28;45485;-55
2022/07/03 05:57:30;;;;;;;;;2.00;0.75;;;;;20.23;49.57;101738.41;5000791;28;45297;-51
2022/07/03 05:59:55;;;;;;;;;0.50;0.50;;;;;20.22;49.73;101728.69;5001162;28;45451;-50
2022/07/03 06:02:21;;;;;;;;;2.00;0.50;;;;;20.30;49.76;101738.72;5001270;28;45206;-53
2022/07/03 06:04:46;;;;;;;;;1.75;1.00;;;;;20.37;50.10;101729.22;5001055;28;45316;-50
2022/07/03 06:07:12;;;;;;;;;1.00;1.00;;;;;20.45;50.07;101732.09;5001079;28;45314;-54
2022/07/03 06:09:37;;;;;;;;;1.00;0.25;;;;;20.53;49.52;101740.34;5001034;28;45304;-54
2022/07/03 06:12:03;;;;;;;;;0.25;0.25;;;;;20.59;50.10;101737.13;5001173;28;45320;-54
2022/07/03 06:14:28;;;;;;;;;0.50;0.50;;;;;20.65;49.76;101734.94;5000752;28;45380;-54
2022/07/03 06:16:54;;;;;;;;;1.00;0.50;;;;;20.67;49.86;101732.97;5000811;28;46191;-52
2022/07/03 06:19:19;;;;;;;;;0.25;0.25;;;;;20.69;49.67;101742.53;5000616;28;45369;-54
2022/07/03 06:21:45;;;;;;;;;0.50;0.50;;;;;20.73;50.02;101740.47;5000964;28;45279;-51
2022/07/03 06:24:10;;;;;;;;;1.75;1.00;;;;;20.73;49.95;101741.31;5000877;28;45231;-54
2022/07/03 06:26:36;;;;;;;;;2.00;0.25;;;;;20.78;50.21;101748.97;4987031;28;45179;-53
2022/07/03 06:29:01;;;;;;;;;1.00;1.00;;;;;20.81;50.17;101746.00;4984441;28;45460;-54
2022/07/03 06:31:27;;;;;;;;;1.00;1.00;;;;;20.84;50.20;101751.94;4984655;28;45495;-54
2022/07/03 06:33:52;;;;;;;;;1.00;1.00;;;;;20.87;50.12;101732.94;4984637;28;45287;-54
2022/07/03 06:36:18;;;;;;;;;2.00;0.50;;;;;20.93;49.83;101742.25;4983073;28;46955;-53
2022/07/03 06:38:43;;;;;;;;;0.75;0.75;;;;;21.00;50.30;101740.72;4984371;28;45379;-54
2022/07/03 06:41:09;;;;;;;;;1.50;0.25;;;;;21.04;50.41;101727.94;4984685;28;45294;-49
2022/07/03 06:43:34;;;;;;;;;0.50;0.50;;;;;21.10;50.05;101730.94;4984207;28;45430;-51
2022/07/03 06:46:00;;;;;;;;;1.00;1.00;;;;;21.16;50.01;101727.69;4984144;28;45843;-51
2022/07/03 06:48:25;;;;;;;;;2.00;2.00;;;;;21.24;50.01;101729.69;4984354;28;45299;-53
2022/07/03 06:50:51;;;;;;;;;5.00;2.50;;;;;21.29;50.17;101735.53;4983035;28;45445;-51
2022/07/03 06:53:16;;;;;;;;;2.50;1.50;;;;;21.35;49.87;101732.31;4984351;28;45319;-53
2022/07/03 06:55:42;;;;;;;;;2.75;2.00;;;;;21.39;49.89;101741.75;4983958;28;45596;-52
2022/07/03 06:58:07;;;;;;;;;3.50;3.50;;;;;21.42;49.95;101740.66;4984040;28;45360;-54
2022/07/03 07:00:33;;;;;;;;;2.75;2.75;;;;;21.45;49.79;101740.38;4984193;28;45408;-53
2022/07/03 07:02:58;;;;;;;;;2.50;2.00;;;;;21.45;49.85;101741.22;4984200;28;45521;-55
2022/07/03 07:05:23;;;;;;;;;5.75;2.25;;;;;21.44;49.93;101746.72;4983945;28;45227;-54
2022/07/03 07:07:49;;;;;;;;;4.25;3.25;;;;;21.39;49.89;101749.81;4984207;28;45240;-53
2022/07/03 07:10:15;;;;;;;;;4.25;3.25;;;;;21.35;49.80;101756.44;4983980;28;45235;-52
2022/07/03 07:12:41;;;;;;;;;3.50;2.00;;;;;21.36;50.16;101750.09;4983829;28;45420;-53
2022/07/03 07:15:06;;;;;;;;;3.25;1.00;;;;;21.37;49.74;101749.09;4983629;28;45324;-54
2022/07/03 07:17:32;;;;;;;;;2.75;1.75;;;;;21.39;49.57;101759.69;4983828;28;45323;-52
2022/07/03 07:19:57;;;;;;;;;2.75;2.75;;;;;21.42;49.96;101757.59;5001590;28;45218;-53
2022/07/03 07:22:25;;;;;;;;;4.50;2.75;;;;;21.47;49.87;101749.13;5003820;28;45377;-51
2022/07/03 07:24:50;;;;;;;;;5.75;4.00;;;;;21.50;49.73;101761.44;5000466;28;45341;-55
2022/07/03 07:27:16;;;;;;;;;4.75;2.75;;;;;21.49;49.71;101757.03;4983616;28;45358;-53
2022/07/03 07:29:41;;;;;;;;;3.00;3.00;;;;;21.50;49.78;101762.28;4983593;28;45387;-54
2022/07/03 07:32:07;;;;;;;;;1.75;1.75;;;;;21.53;49.95;101763.81;4983876;28;45246;-50
2022/07/03 07:34:33;;;;;;;;;2.75;2.25;;;;;21.54;49.79;101762.81;4983391;28;45373;-55
2022/07/03 07:36:58;;;;;;;;;3.75;3.00;;;;;21.57;49.71;101763.41;4983350;28;45414;-52
2022/07/03 07:39:23;;;;;;;;;2.75;2.75;;;;;21.58;49.73;101758.91;4983367;28;45319;-54
2022/07/03 07:41:49;;;;;;;;;3.50;3.50;;;;;21.59;49.73;101758.75;4983846;28;45470;-54
2022/07/03 07:44:15;;;;;;;;;5.00;3.50;;;;;21.62;49.69;101754.94;4965648;28;45248;-54
2022/07/03 07:46:41;;;;;;;;;4.75;4.00;;;;;21.63;49.42;101760.16;4983292;28;45303;-54
2022/07/03 07:49:06;;;;;;;;;2.00;2.00;;;;;21.65;49.83;101770.78;4983332;28;45203;-54
2022/07/03 07:51:31;;;;;;;;;2.75;2.25;;;;;21.65;49.47;101757.38;4983740;28;45235;-55
2022/07/03 07:53:57;;;;;;;;;4.00;3.00;;;;;21.67;49.71;101763.44;4983055;28;46664;-55
2022/07/03 07:56:26;;;;;;;;;6.25;3.00;;;;;21.67;49.72;101766.13;4983253;28;45171;-52
2022/07/03 07:58:52;;;;;;;;;2.50;2.00;;;;;21.64;49.66;101752.97;4982913;28;45361;-52
2022/07/03 08:06:48;;;;;;;;;3.25;2.50;;;;;21.59;49.88;101763.28;4983061;28;45310;-52
2022/07/03 08:09:13;;;;;;;;;2.75;2.75;;;;;21.62;49.68;101768.34;4983231;28;45449;-55
2022/07/03 08:11:38;;;;;;;;;4.75;2.75;;;;;21.67;49.64;101764.28;4982949;28;45453;-54
2022/07/03 08:14:07;;;;;;;;;10.50;9.75;;;;;21.69;49.68;101764.13;4982617;28;46152;-54
2022/07/03 08:16:32;;;;;;;;;12.50;11.00;;;;;21.75;49.71;101760.91;4982687;28;45395;-51
2022/07/03 08:18:58;;;;;;;;;4.50;4.50;;;;;21.77;49.72;101758.94;4992499;28;45162;-52
2022/07/03 08:21:23;;;;;;;;;2.50;2.50;;;;;21.80;49.38;101753.28;5002696;28;45329;-53
2022/07/03 08:23:49;;;;;;;;;2.25;2.25;;;;;21.79;49.44;101756.94;5002464;28;45438;-54
2022/07/03 08:26:14;;;;;;;;;7.25;4.00;;;;;21.75;49.39;101758.22;4988182;28;45445;-55
2022/07/03 08:28:40;;;;;;;;;4.00;2.75;;;;;21.77;49.48;101755.41;4982702;28;45492;-55
2022/07/03 08:31:05;;;;;;;;;3.00;3.00;;;;;21.81;49.43;101760.34;4982938;28;45451;-53
2022/07/03 08:33:31;;;;;;;;;1.25;1.25;;;;;21.84;49.26;101760.06;4982592;28;45299;-53
2022/07/03 08:35:56;;;;;;;;;2.25;2.25;;;;;21.87;49.39;101759.78;4982556;28;45429;-52
2022/07/03 08:38:31;;;;;;;;;4.00;3.25;;;;;21.90;49.38;101759.53;4982770;28;45391;-53
2022/07/03 08:40:59;;;;;;;;;4.00;2.00;;;;;21.95;49.34;101749.19;4982532;28;45388;-54
2022/07/03 08:43:25;;;;;;;;;3.00;3.00;;;;;22.03;49.21;101751.19;4982341;28;45263;-51
2022/07/03 08:45:50;;;;;;;;;3.50;3.50;;;;;22.09;49.06;101752.50;4982222;28;45207;-51
2022/07/03 08:48:18;;;;;;;;;5.00;4.25;;;;;22.07;49.40;101749.94;4981625;28;45397;-54
2022/07/03 08:50:45;;;;;;;;;4.25;2.75;;;;;22.10;48.95;101746.13;4982490;28;45279;-52
2022/07/03 08:53:11;;;;;;;;;3.00;2.25;;;;;22.11;49.04;101748.66;4965224;28;45346;-54
2022/07/03 08:55:37;;;;;;;;;2.25;2.25;;;;;22.14;49.04;101747.56;4982098;28;45477;-50
2022/07/03 08:58:04;;;;;;;;;5.50;3.00;;;;;22.12;48.80;101750.41;4982407;28;45375;-50
2022/07/03 09:00:31;;;;;;;;;4.50;2.50;;;;;22.07;48.91;101749.94;4982249;28;45128;-50
2022/07/03 09:02:59;;;;;;;;;2.75;2.75;;;;;22.10;48.84;101757.72;4982058;28;46135;-54
2022/07/03 09:05:25;;;;;;;;;2.50;2.50;;;;;22.18;49.05;101757.84;4981978;28;45310;-51
2022/07/03 09:07:53;;;;;;;;;3.50;3.00;;;;;22.29;48.80;101759.56;4982262;28;45560;-55
2022/07/03 09:10:19;;;;;;;;;3.00;2.75;;;;;22.39;48.91;101749.66;4982688;28;45533;-53
2022/07/03 09:12:46;;;;;;;;;5.25;2.50;;;;;22.40;48.93;101754.03;4989942;28;45616;-53
2022/07/03 09:15:12;;;;;;;;;3.25;3.25;;;;;22.38;48.72;101747.13;4981776;28;45218;-52
2022/07/03 09:17:38;;;;;;;;;4.50;3.00;;;;;22.36;48.52;101752.63;4981812;28;45256;-52
2022/07/03 09:20:07;;;;;;;;;3.50;2.25;;;;;22.35;48.55;101750.91;5000545;28;45186;-51
2022/07/03 09:22:35;;;;;;;;;3.00;2.00;;;;;22.37;48.38;101756.16;5001429;28;45397;-54
2022/07/03 09:25:09;;;;;;;;;3.00;2.75;;;;;22.37;48.20;101750.81;4996865;28;45297;-51
2022/07/03 09:27:36;;;;;;;;;2.75;2.75;;;;;22.43;48.06;101747.53;4981656;28;45326;-51
2022/07/03 09:30:07;;;;;;;;;3.00;3.00;;;;;22.49;48.57;101738.91;4981941;28;45341;-51
2022/07/03 09:32:44;;;;;;;;;3.00;3.00;;;;;22.58;48.07;101746.94;4981392;28;46204;-51
2022/07/03 09:35:26;;;;;;;;;5.00;4.00;;;;;22.62;48.16;101749.34;4981435;28;45200;-53
2022/07/03 09:37:56;;;;;;;;;3.25;3.25;;;;;22.60;47.98;101745.97;4981628;28;45452;-51
2022/07/03 09:40:23;;;;;;;;;4.25;4.00;;;;;22.64;48.06;101745.50;4981802;28;45328;-52
2022/07/03 09:42:59;;;;;;;;;5.00;4.00;;;;;22.75;47.93;101747.16;4981316;28;45999;-52
2022/07/03 09:45:25;;;;;;;;;3.50;3.50;;;;;22.84;47.89;101749.00;4981349;28;45377;-54
2022/07/03 09:47:51;;;;;;;;;4.00;4.00;;;;;22.92;47.86;101749.16;4981460;28;45522;-53
2022/07/03 09:50:16;;;;;;;;;7.25;3.50;;;;;23.03;47.49;101750.81;4981620;28;45389;-52
2022/07/03 09:52:47;;;;;;;;;3.25;3.25;;;;;23.15;47.72;101751.47;4981700;28;45593;-54
2022/07/03 09:55:18;;;;;;;;;5.00;4.75;;;;;23.17;47.28;101747.63;4981580;28;45259;-53
2022/07/03 09:57:50;;;;;;;;;5.25;5.00;;;;;23.21;47.17;101743.63;4981161;28;45259;-54
2022/07/03 10:00:17;;;;;;;;;6.50;6.00;;;;;23.26;46.72;101753.97;4981267;28;45310;-53
2022/07/03 10:03:03;;;;;;;;;8.25;7.00;;;;;23.23;47.01;101748.91;4981146;28;45421;-55
2022/07/03 10:05:35;;;;;;;;;4.00;4.00;;;;;23.28;47.14;101752.81;4980966;28;45385;-54
2022/07/03 10:08:11;;;;;;;;;6.00;5.25;;;;;23.26;46.62;101754.81;4981205;28;45338;-54
2022/07/03 10:10:41;;;;;;;;;7.25;5.25;;;;;23.26;46.16;101749.44;4981672;28;45401;-53
2022/07/03 10:13:07;;;;;;;;;7.25;6.50;;;;;23.22;46.66;101747.16;4980767;28;46294;-54
2022/07/03 10:15:37;;;;;;;;;6.50;6.50;;;;;23.18;46.54;101765.47;4981040;28;45267;-50
2022/07/03 10:18:05;;;;;;;;;5.25;5.25;;;;;23.11;46.40;101759.81;4983164;28;45317;-54
2022/07/03 10:20:34;;;;;;;;;6.25;4.75;;;;;23.04;46.40;101772.16;5000920;28;45420;-53
2022/07/03 10:23:00;;;;;;;;;3.75;3.75;;;;;22.98;46.28;101769.19;5000713;28;46344;-52
2022/07/03 10:25:26;;;;;;;;;4.00;4.00;;;;;22.97;46.28;101767.50;4993154;28;45737;-54
2022/07/03 10:27:52;;;;;;;;;4.75;4.75;;;;;22.97;46.66;101760.28;4980871;28;45323;-54
2022/07/03 10:30:20;;;;;;;;;6.50;6.00;;;;;23.07;46.55;101761.13;4981383;28;45304;-53
2022/07/03 10:32:48;;;;;;;;;8.50;6.00;;;;;23.19;46.52;101751.00;4980692;28;46127;-52
2022/07/03 10:35:32;;;;;;;;;6.25;6.25;;;;;23.26;46.56;101751.28;4981015;28;45306;-53
2022/07/03 10:38:00;;;;;;;;;4.25;4.25;;;;;23.32;46.39;101753.38;4982702;28;45353;-51
2022/07/03 10:46:27;;;;;;;;;6.75;5.50;;;;;23.87;46.15;101748.81;4980790;28;45320;-52
2022/07/03 10:48:59;;;;;;;;;4.50;4.00;;;;;23.99;45.47;101754.81;4980775;28;45313;-54
2022/07/03 10:51:26;;;;;;;;;7.50;6.25;;;;;23.95;45.68;101751.59;4980900;28;45420;-54
2022/07/03 10:54:12;;;;;;;;;4.50;4.50;;;;;23.86;45.08;101752.50;4980428;28;46217;-53
2022/07/03 10:57:02;;;;;;;;;5.00;4.00;;;;;23.77;45.49;101757.94;4980609;28;45330;-54
2022/07/03 10:59:45;;;;;;;;;4.25;4.25;;;;;23.64;45.53;101755.63;4980538;28;45402;-55
2022/07/03 11:02:42;;;;;;;;;5.25;4.00;;;;;23.57;45.04;101760.72;4980506;28;45560;-52
2022/07/03 11:05:18;;;;;;;;;7.25;5.25;;;;;23.68;45.86;101755.16;4980423;28;45456;-55
2022/07/03 11:07:49;;;;;;;;;5.00;4.00;;;;;23.89;45.34;101759.41;4973631;28;45220;-53
2022/07/03 11:10:15;;;;;;;;;4.00;4.00;;;;;24.03;45.06;101748.13;4982274;28;46192;-54
2022/07/03 11:13:00;;;;;;;;;4.25;4.00;;;;;24.16;44.95;101759.31;4983769;28;45322;-54
2022/07/03 11:15:29;;;;;;;;;3.25;3.25;;;;;24.32;44.47;101763.16;4983993;28;45176;-55
2022/07/03 11:18:07;;;;;;;;;4.00;3.50;;;;;24.40;44.63;101763.25;4984313;28;45379;-55
2022/07/03 11:20:42;;;;;;;;;4.25;3.75;;;;;24.51;44.59;101760.34;5003670;28;45289;-55
2022/07/03 11:23:13;;;;;;;;;4.25;2.50;;;;;24.58;44.14;101757.88;5003396;28;45327;-55
2022/07/03 11:25:46;;;;;;;;;3.75;3.75;;;;;24.61;43.67;101768.31;4993989;28;45385;-53
2022/07/03 11:28:31;;;;;;;;;2.50;2.50;;;;;24.61;43.48;101758.38;4983224;28;45219;-53
2022/07/03 11:31:13;;;;;;;;;1.75;1.75;;;;;24.65;43.78;101757.06;4983467;28;45236;-54
2022/07/03 11:33:42;;;;;;;;;5.00;5.00;;;;;24.71;43.24;101752.88;4983695;28;45179;-53
2022/07/03 11:36:29;;;;;;;;;4.50;3.25;;;;;24.78;43.53;101749.41;4983327;28;45382;-55
2022/07/03 11:38:55;;;;;;;;;4.50;3.00;;;;;24.87;42.88;101754.84;4982831;28;45243;-53
2022/07/03 11:41:21;;;;;;;;;7.25;7.25;;;;;24.96;43.13;101745.78;4983867;28;45796;-54
2022/07/03 11:43:55;;;;;;;;;4.00;3.00;;;;;25.04;42.94;101746.72;4983422;28;45548;-55
2022/07/03 11:46:22;;;;;;;;;2.75;2.50;;;;;25.13;42.89;101746.78;4973271;28;47064;-55